sensor_id;sensor_type;location;lat;lon;timestamp;P1;durP1;ratioP1;P2;durP2;ratioP2
12687;SDS011;6408;59.388;17.798;2022-10-16T00:01:35;11.40;;;9.43;;
12687;SDS011;6408;59.388;17.798;2022-10-16T00:04:03;11.67;;;9.10;;
12687;SDS011;6408;59.388;17.798;2022-10-16T00:06:30;12.67;;;9.47;;
12687;SDS011;6408;59.388;17.798;2022-10-16T00:08:58;12.60;;;9.30;;
12687;SDS011;6408;59.388;17.798;2022-10-16T00:11:28;10.90;;;8.73;;
12687;SDS011;6408;59.388;17.798;2022-10-16T00:13:58;11.83;;;9.03;;
12687;SDS011;6408;59.388;17.798;2022-10-16T00:16:28;12.43;;;9.20;;
12687;SDS011;6408;59.388;17.798;2022-10-16T00:18:55;11.03;;;9.03;;
12687;SDS011;6408;59.388;17.798;2022-10-16T00:21:24;12.07;;;9.23;;
12687;SDS011;6408;59.388;17.798;2022-10-16T00:23:54;12.23;;;9.20;;
12687;SDS011;6408;59.388;17.798;2022-10-16T00:26:24;10.83;;;8.60;;
12687;SDS011;6408;59.388;17.798;2022-10-16T00:28:54;10.40;;;8.23;;
12687;SDS011;6408;59.388;17.798;2022-10-16T00:31:22;9.70;;;8.30;;
12687;SDS011;6408;59.388;17.798;2022-10-16T00:33:50;12.00;;;9.03;;
12687;SDS011;6408;59.388;17.798;2022-10-16T00:36:19;12.40;;;9.40;;
12687;SDS011;6408;59.388;17.798;2022-10-16T00:38:49;13.10;;;9.20;;
12687;SDS011;6408;59.388;17.798;2022-10-16T00:41:19;13.10;;;9.50;;
12687;SDS011;6408;59.388;17.798;2022-10-16T00:43:50;12.10;;;9.33;;
12687;SDS011;6408;59.388;17.798;2022-10-16T00:46:20;11.63;;;9.13;;
12687;SDS011;6408;59.388;17.798;2022-10-16T00:48:50;9.87;;;8.73;;
12687;SDS011;6408;59.388;17.798;2022-10-16T00:51:21;11.60;;;9.47;;
12687;SDS011;6408;59.388;17.798;2022-10-16T00:53:59;11.20;;;9.03;;
12687;SDS011;6408;59.388;17.798;2022-10-16T00:56:26;10.47;;;8.90;;
12687;SDS011;6408;59.388;17.798;2022-10-16T00:58:56;11.60;;;9.40;;
12687;SDS011;6408;59.388;17.798;2022-10-16T01:01:24;10.33;;;9.07;;
12687;SDS011;6408;59.388;17.798;2022-10-16T01:03:52;15.60;;;9.73;;
12687;SDS011;6408;59.388;17.798;2022-10-16T01:06:21;11.23;;;9.50;;
12687;SDS011;6408;59.388;17.798;2022-10-16T01:08:58;12.00;;;9.23;;
12687;SDS011;6408;59.388;17.798;2022-10-16T01:11:37;12.60;;;9.43;;
12687;SDS011;6408;59.388;17.798;2022-10-16T01:14:14;12.50;;;9.17;;
12687;SDS011;6408;59.388;17.798;2022-10-16T01:16:48;11.33;;;8.63;;
12687;SDS011;6408;59.388;17.798;2022-10-16T01:19:25;11.27;;;9.40;;
12687;SDS011;6408;59.388;17.798;2022-10-16T01:22:02;11.17;;;9.13;;
12687;SDS011;6408;59.388;17.798;2022-10-16T01:24:33;13.37;;;9.20;;
12687;SDS011;6408;59.388;17.798;2022-10-16T01:27:11;11.10;;;9.43;;
12687;SDS011;6408;59.388;17.798;2022-10-16T01:29:44;13.97;;;9.60;;
12687;SDS011;6408;59.388;17.798;2022-10-16T01:32:17;12.40;;;10.17;;
12687;SDS011;6408;59.388;17.798;2022-10-16T01:34:49;11.93;;;9.63;;
12687;SDS011;6408;59.388;17.798;2022-10-16T01:37:22;11.10;;;9.27;;
12687;SDS011;6408;59.388;17.798;2022-10-16T01:39:55;11.47;;;9.43;;
12687;SDS011;6408;59.388;17.798;2022-10-16T01:42:30;13.87;;;10.03;;
12687;SDS011;6408;59.388;17.798;2022-10-16T01:45:03;12.03;;;9.60;;
12687;SDS011;6408;59.388;17.798;2022-10-16T01:47:33;11.57;;;9.83;;
12687;SDS011;6408;59.388;17.798;2022-10-16T01:50:03;13.23;;;10.40;;
12687;SDS011;6408;59.388;17.798;2022-10-16T01:52:33;12.47;;;10.33;;
12687;SDS011;6408;59.388;17.798;2022-10-16T01:55:04;14.00;;;10.53;;
12687;SDS011;6408;59.388;17.798;2022-10-16T01:57:35;15.73;;;10.40;;
12687;SDS011;6408;59.388;17.798;2022-10-16T02:00:06;11.80;;;9.63;;
12687;SDS011;6408;59.388;17.798;2022-10-16T02:02:37;13.10;;;10.10;;
12687;SDS011;6408;59.388;17.798;2022-10-16T02:05:08;14.27;;;10.03;;
12687;SDS011;6408;59.388;17.798;2022-10-16T02:07:41;14.37;;;8.83;;
12687;SDS011;6408;59.388;17.798;2022-10-16T02:10:09;10.37;;;9.07;;
12687;SDS011;6408;59.388;17.798;2022-10-16T02:12:39;11.03;;;9.33;;
12687;SDS011;6408;59.388;17.798;2022-10-16T02:15:10;9.93;;;8.30;;
12687;SDS011;6408;59.388;17.798;2022-10-16T02:17:38;9.47;;;8.47;;
12687;SDS011;6408;59.388;17.798;2022-10-16T02:20:06;9.53;;;8.50;;
12687;SDS011;6408;59.388;17.798;2022-10-16T02:22:36;9.60;;;8.10;;
12687;SDS011;6408;59.388;17.798;2022-10-16T02:25:08;11.30;;;9.07;;
12687;SDS011;6408;59.388;17.798;2022-10-16T02:27:43;11.60;;;8.47;;
12687;SDS011;6408;59.388;17.798;2022-10-16T02:30:19;10.03;;;7.67;;
12687;SDS011;6408;59.388;17.798;2022-10-16T02:32:51;9.20;;;7.77;;
12687;SDS011;6408;59.388;17.798;2022-10-16T02:35:20;10.53;;;8.37;;
12687;SDS011;6408;59.388;17.798;2022-10-16T02:37:48;9.87;;;7.87;;
12687;SDS011;6408;59.388;17.798;2022-10-16T02:40:17;10.97;;;7.67;;
12687;SDS011;6408;59.388;17.798;2022-10-16T02:42:49;12.63;;;7.93;;
12687;SDS011;6408;59.388;17.798;2022-10-16T02:45:18;12.10;;;8.53;;
12687;SDS011;6408;59.388;17.798;2022-10-16T02:47:46;10.67;;;7.83;;
12687;SDS011;6408;59.388;17.798;2022-10-16T02:50:13;9.27;;;7.67;;
12687;SDS011;6408;59.388;17.798;2022-10-16T02:52:41;8.63;;;7.73;;
12687;SDS011;6408;59.388;17.798;2022-10-16T02:55:08;8.30;;;6.90;;
12687;SDS011;6408;59.388;17.798;2022-10-16T02:57:36;8.57;;;7.53;;
12687;SDS011;6408;59.388;17.798;2022-10-16T03:00:09;8.70;;;7.30;;
12687;SDS011;6408;59.388;17.798;2022-10-16T03:02:38;8.77;;;7.57;;
12687;SDS011;6408;59.388;17.798;2022-10-16T03:05:06;10.03;;;7.50;;
12687;SDS011;6408;59.388;17.798;2022-10-16T03:07:34;10.37;;;7.73;;
12687;SDS011;6408;59.388;17.798;2022-10-16T03:10:01;9.53;;;7.73;;
12687;SDS011;6408;59.388;17.798;2022-10-16T03:12:29;8.90;;;7.43;;
12687;SDS011;6408;59.388;17.798;2022-10-16T03:14:57;10.63;;;8.30;;
12687;SDS011;6408;59.388;17.798;2022-10-16T03:17:26;10.67;;;7.70;;
12687;SDS011;6408;59.388;17.798;2022-10-16T03:19:53;8.97;;;7.83;;
12687;SDS011;6408;59.388;17.798;2022-10-16T03:22:21;10.87;;;8.33;;
12687;SDS011;6408;59.388;17.798;2022-10-16T03:24:48;11.63;;;8.50;;
12687;SDS011;6408;59.388;17.798;2022-10-16T03:27:16;8.40;;;7.33;;
12687;SDS011;6408;59.388;17.798;2022-10-16T03:29:44;8.20;;;7.23;;
12687;SDS011;6408;59.388;17.798;2022-10-16T03:32:11;9.70;;;7.80;;
12687;SDS011;6408;59.388;17.798;2022-10-16T03:34:40;9.20;;;7.53;;
12687;SDS011;6408;59.388;17.798;2022-10-16T03:37:08;9.63;;;7.73;;
12687;SDS011;6408;59.388;17.798;2022-10-16T03:39:35;8.60;;;7.07;;
12687;SDS011;6408;59.388;17.798;2022-10-16T03:42:02;9.30;;;7.40;;
12687;SDS011;6408;59.388;17.798;2022-10-16T03:44:30;9.47;;;7.73;;
12687;SDS011;6408;59.388;17.798;2022-10-16T03:46:57;11.90;;;7.67;;
12687;SDS011;6408;59.388;17.798;2022-10-16T03:49:24;9.97;;;7.57;;
12687;SDS011;6408;59.388;17.798;2022-10-16T03:51:54;9.07;;;7.17;;
12687;SDS011;6408;59.388;17.798;2022-10-16T03:54:22;7.93;;;7.07;;
12687;SDS011;6408;59.388;17.798;2022-10-16T03:56:49;9.93;;;7.27;;
12687;SDS011;6408;59.388;17.798;2022-10-16T03:59:16;10.07;;;7.73;;
12687;SDS011;6408;59.388;17.798;2022-10-16T04:01:44;7.70;;;6.90;;
12687;SDS011;6408;59.388;17.798;2022-10-16T04:04:11;10.60;;;6.73;;
12687;SDS011;6408;59.388;17.798;2022-10-16T04:06:39;9.80;;;6.87;;
12687;SDS011;6408;59.388;17.798;2022-10-16T04:09:08;8.27;;;6.33;;
12687;SDS011;6408;59.388;17.798;2022-10-16T04:11:35;7.80;;;6.73;;
12687;SDS011;6408;59.388;17.798;2022-10-16T04:14:03;9.90;;;6.73;;
12687;SDS011;6408;59.388;17.798;2022-10-16T04:16:31;8.17;;;6.83;;
12687;SDS011;6408;59.388;17.798;2022-10-16T04:18:58;7.50;;;5.80;;
12687;SDS011;6408;59.388;17.798;2022-10-16T04:21:27;7.73;;;6.20;;
12687;SDS011;6408;59.388;17.798;2022-10-16T04:23:54;8.47;;;6.43;;
12687;SDS011;6408;59.388;17.798;2022-10-16T04:26:24;10.50;;;6.47;;
12687;SDS011;6408;59.388;17.798;2022-10-16T04:28:51;9.83;;;6.57;;
12687;SDS011;6408;59.388;17.798;2022-10-16T04:31:19;7.63;;;6.10;;
12687;SDS011;6408;59.388;17.798;2022-10-16T04:33:47;7.17;;;5.60;;
12687;SDS011;6408;59.388;17.798;2022-10-16T04:36:14;6.50;;;5.43;;
12687;SDS011;6408;59.388;17.798;2022-10-16T04:38:42;9.20;;;6.07;;
12687;SDS011;6408;59.388;17.798;2022-10-16T04:41:09;6.13;;;5.10;;
12687;SDS011;6408;59.388;17.798;2022-10-16T04:43:38;6.97;;;5.60;;
12687;SDS011;6408;59.388;17.798;2022-10-16T04:46:05;5.63;;;5.03;;
12687;SDS011;6408;59.388;17.798;2022-10-16T04:48:35;5.67;;;5.13;;
12687;SDS011;6408;59.388;17.798;2022-10-16T04:51:03;6.87;;;5.80;;
12687;SDS011;6408;59.388;17.798;2022-10-16T04:53:30;6.77;;;5.60;;
12687;SDS011;6408;59.388;17.798;2022-10-16T04:55:58;6.50;;;5.40;;
12687;SDS011;6408;59.388;17.798;2022-10-16T04:58:25;6.23;;;5.40;;
12687;SDS011;6408;59.388;17.798;2022-10-16T05:00:55;5.87;;;5.27;;
12687;SDS011;6408;59.388;17.798;2022-10-16T05:03:22;6.03;;;5.43;;
12687;SDS011;6408;59.388;17.798;2022-10-16T05:05:50;6.77;;;4.70;;
12687;SDS011;6408;59.388;17.798;2022-10-16T05:08:17;6.60;;;5.23;;
12687;SDS011;6408;59.388;17.798;2022-10-16T05:10:45;6.10;;;4.97;;
12687;SDS011;6408;59.388;17.798;2022-10-16T05:13:13;9.63;;;5.17;;
12687;SDS011;6408;59.388;17.798;2022-10-16T05:15:40;8.20;;;5.30;;
12687;SDS011;6408;59.388;17.798;2022-10-16T05:18:10;6.60;;;5.10;;
12687;SDS011;6408;59.388;17.798;2022-10-16T05:20:38;5.93;;;5.20;;
12687;SDS011;6408;59.388;17.798;2022-10-16T05:23:05;5.90;;;4.80;;
12687;SDS011;6408;59.388;17.798;2022-10-16T05:25:35;4.97;;;4.57;;
12687;SDS011;6408;59.388;17.798;2022-10-16T05:28:02;6.37;;;5.13;;
12687;SDS011;6408;59.388;17.798;2022-10-16T05:30:30;5.73;;;5.13;;
12687;SDS011;6408;59.388;17.798;2022-10-16T05:32:57;6.40;;;5.07;;
12687;SDS011;6408;59.388;17.798;2022-10-16T05:35:27;7.20;;;4.50;;
12687;SDS011;6408;59.388;17.798;2022-10-16T05:37:54;5.53;;;5.03;;
12687;SDS011;6408;59.388;17.798;2022-10-16T05:40:22;7.17;;;5.33;;
12687;SDS011;6408;59.388;17.798;2022-10-16T05:42:50;5.67;;;4.70;;
12687;SDS011;6408;59.388;17.798;2022-10-16T05:45:22;6.10;;;4.87;;
12687;SDS011;6408;59.388;17.798;2022-10-16T05:47:49;6.37;;;4.73;;
12687;SDS011;6408;59.388;17.798;2022-10-16T05:50:17;8.20;;;5.73;;
12687;SDS011;6408;59.388;17.798;2022-10-16T05:52:46;6.00;;;5.40;;
12687;SDS011;6408;59.388;17.798;2022-10-16T05:55:14;7.23;;;5.77;;
12687;SDS011;6408;59.388;17.798;2022-10-16T05:57:41;7.77;;;6.37;;
12687;SDS011;6408;59.388;17.798;2022-10-16T06:00:09;8.77;;;6.23;;
12687;SDS011;6408;59.388;17.798;2022-10-16T06:02:37;10.43;;;6.20;;
12687;SDS011;6408;59.388;17.798;2022-10-16T06:05:05;7.70;;;6.10;;
12687;SDS011;6408;59.388;17.798;2022-10-16T06:07:33;9.30;;;6.40;;
12687;SDS011;6408;59.388;17.798;2022-10-16T06:10:04;8.70;;;6.73;;
12687;SDS011;6408;59.388;17.798;2022-10-16T06:12:32;9.60;;;6.90;;
12687;SDS011;6408;59.388;17.798;2022-10-16T06:15:00;10.90;;;6.80;;
12687;SDS011;6408;59.388;17.798;2022-10-16T06:17:27;8.40;;;6.60;;
12687;SDS011;6408;59.388;17.798;2022-10-16T06:19:55;10.37;;;7.30;;
12687;SDS011;6408;59.388;17.798;2022-10-16T06:22:22;9.33;;;7.33;;
12687;SDS011;6408;59.388;17.798;2022-10-16T06:24:50;8.73;;;7.73;;
12687;SDS011;6408;59.388;17.798;2022-10-16T06:27:19;12.37;;;7.67;;
12687;SDS011;6408;59.388;17.798;2022-10-16T06:29:46;10.90;;;7.50;;
12687;SDS011;6408;59.388;17.798;2022-10-16T06:32:13;11.00;;;8.27;;
12687;SDS011;6408;59.388;17.798;2022-10-16T06:34:41;9.40;;;7.77;;
12687;SDS011;6408;59.388;17.798;2022-10-16T06:37:09;8.30;;;7.07;;
12687;SDS011;6408;59.388;17.798;2022-10-16T06:39:36;12.30;;;8.00;;
12687;SDS011;6408;59.388;17.798;2022-10-16T06:42:04;11.97;;;7.77;;
12687;SDS011;6408;59.388;17.798;2022-10-16T06:44:33;9.47;;;7.90;;
12687;SDS011;6408;59.388;17.798;2022-10-16T06:47:00;10.67;;;7.30;;
12687;SDS011;6408;59.388;17.798;2022-10-16T06:49:28;11.23;;;8.00;;
12687;SDS011;6408;59.388;17.798;2022-10-16T06:51:55;10.47;;;7.50;;
12687;SDS011;6408;59.388;17.798;2022-10-16T06:54:23;10.70;;;7.57;;
12687;SDS011;6408;59.388;17.798;2022-10-16T06:56:50;8.90;;;7.20;;
12687;SDS011;6408;59.388;17.798;2022-10-16T06:59:19;10.47;;;7.37;;
12687;SDS011;6408;59.388;17.798;2022-10-16T07:01:48;8.90;;;7.47;;
12687;SDS011;6408;59.388;17.798;2022-10-16T07:04:15;9.77;;;7.40;;
12687;SDS011;6408;59.388;17.798;2022-10-16T07:06:42;8.97;;;6.63;;
12687;SDS011;6408;59.388;17.798;2022-10-16T07:09:10;9.30;;;6.67;;
12687;SDS011;6408;59.388;17.798;2022-10-16T07:11:38;10.27;;;6.60;;
12687;SDS011;6408;59.388;17.798;2022-10-16T07:14:09;7.37;;;6.60;;
12687;SDS011;6408;59.388;17.798;2022-10-16T07:16:42;6.77;;;5.80;;
12687;SDS011;6408;59.388;17.798;2022-10-16T07:19:11;7.20;;;6.20;;
12687;SDS011;6408;59.388;17.798;2022-10-16T07:21:40;8.43;;;6.93;;
12687;SDS011;6408;59.388;17.798;2022-10-16T07:24:11;5.80;;;5.27;;
12687;SDS011;6408;59.388;17.798;2022-10-16T07:26:39;7.33;;;5.87;;
12687;SDS011;6408;59.388;17.798;2022-10-16T07:29:09;7.40;;;5.80;;
12687;SDS011;6408;59.388;17.798;2022-10-16T07:31:39;6.03;;;5.43;;
12687;SDS011;6408;59.388;17.798;2022-10-16T07:34:07;7.37;;;5.47;;
12687;SDS011;6408;59.388;17.798;2022-10-16T07:36:36;7.10;;;5.57;;
12687;SDS011;6408;59.388;17.798;2022-10-16T07:39:03;6.30;;;5.53;;
12687;SDS011;6408;59.388;17.798;2022-10-16T07:41:31;5.23;;;4.73;;
12687;SDS011;6408;59.388;17.798;2022-10-16T07:44:02;6.23;;;4.83;;
12687;SDS011;6408;59.388;17.798;2022-10-16T07:46:30;5.57;;;4.27;;
12687;SDS011;6408;59.388;17.798;2022-10-16T07:48:58;5.07;;;4.30;;
12687;SDS011;6408;59.388;17.798;2022-10-16T07:51:26;5.80;;;4.73;;
12687;SDS011;6408;59.388;17.798;2022-10-16T07:53:55;4.50;;;4.00;;
12687;SDS011;6408;59.388;17.798;2022-10-16T07:56:22;4.63;;;4.23;;
12687;SDS011;6408;59.388;17.798;2022-10-16T07:58:50;5.30;;;3.70;;
12687;SDS011;6408;59.388;17.798;2022-10-16T08:01:18;6.90;;;4.30;;
12687;SDS011;6408;59.388;17.798;2022-10-16T08:03:46;5.23;;;4.10;;
12687;SDS011;6408;59.388;17.798;2022-10-16T08:06:15;5.07;;;3.77;;
12687;SDS011;6408;59.388;17.798;2022-10-16T08:08:43;4.70;;;3.83;;
12687;SDS011;6408;59.388;17.798;2022-10-16T08:11:12;5.60;;;3.90;;
12687;SDS011;6408;59.388;17.798;2022-10-16T08:13:40;8.07;;;3.97;;
12687;SDS011;6408;59.388;17.798;2022-10-16T08:16:08;6.03;;;3.70;;
12687;SDS011;6408;59.388;17.798;2022-10-16T08:18:36;5.57;;;3.30;;
12687;SDS011;6408;59.388;17.798;2022-10-16T08:21:04;5.13;;;3.70;;
12687;SDS011;6408;59.388;17.798;2022-10-16T08:23:33;5.07;;;3.53;;
12687;SDS011;6408;59.388;17.798;2022-10-16T08:26:02;5.93;;;3.80;;
12687;SDS011;6408;59.388;17.798;2022-10-16T08:28:33;4.83;;;3.37;;
12687;SDS011;6408;59.388;17.798;2022-10-16T08:31:08;4.67;;;3.57;;
12687;SDS011;6408;59.388;17.798;2022-10-16T08:33:36;3.97;;;3.63;;
12687;SDS011;6408;59.388;17.798;2022-10-16T08:36:04;4.43;;;3.60;;
12687;SDS011;6408;59.388;17.798;2022-10-16T08:38:32;3.80;;;3.40;;
12687;SDS011;6408;59.388;17.798;2022-10-16T08:41:02;6.83;;;3.27;;
12687;SDS011;6408;59.388;17.798;2022-10-16T08:43:55;6.43;;;3.20;;
12687;SDS011;6408;59.388;17.798;2022-10-16T08:46:40;4.63;;;3.20;;
12687;SDS011;6408;59.388;17.798;2022-10-16T08:49:12;4.73;;;3.13;;
12687;SDS011;6408;59.388;17.798;2022-10-16T08:51:40;7.27;;;4.40;;
12687;SDS011;6408;59.388;17.798;2022-10-16T08:54:15;8.13;;;5.10;;
12687;SDS011;6408;59.388;17.798;2022-10-16T08:56:50;7.40;;;3.60;;
12687;SDS011;6408;59.388;17.798;2022-10-16T08:59:19;10.67;;;4.63;;
12687;SDS011;6408;59.388;17.798;2022-10-16T09:01:47;5.90;;;4.40;;
12687;SDS011;6408;59.388;17.798;2022-10-16T09:07:19;5.30;;;3.50;;
12687;SDS011;6408;59.388;17.798;2022-10-16T09:09:54;6.00;;;3.30;;
12687;SDS011;6408;59.388;17.798;2022-10-16T09:12:33;4.43;;;3.10;;
12687;SDS011;6408;59.388;17.798;2022-10-16T09:15:14;3.80;;;3.30;;
12687;SDS011;6408;59.388;17.798;2022-10-16T09:17:51;5.43;;;3.10;;
12687;SDS011;6408;59.388;17.798;2022-10-16T09:20:30;4.80;;;2.87;;
12687;SDS011;6408;59.388;17.798;2022-10-16T09:23:14;5.73;;;2.93;;
12687;SDS011;6408;59.388;17.798;2022-10-16T09:25:43;5.73;;;3.10;;
12687;SDS011;6408;59.388;17.798;2022-10-16T09:28:15;5.53;;;3.20;;
12687;SDS011;6408;59.388;17.798;2022-10-16T09:30:45;4.37;;;2.67;;
12687;SDS011;6408;59.388;17.798;2022-10-16T09:33:15;3.67;;;2.60;;
12687;SDS011;6408;59.388;17.798;2022-10-16T09:35:44;3.37;;;2.60;;
12687;SDS011;6408;59.388;17.798;2022-10-16T09:38:21;4.37;;;2.40;;
12687;SDS011;6408;59.388;17.798;2022-10-16T09:40:50;2.73;;;2.47;;
12687;SDS011;6408;59.388;17.798;2022-10-16T09:43:22;4.63;;;2.40;;
12687;SDS011;6408;59.388;17.798;2022-10-16T09:45:58;6.00;;;2.23;;
12687;SDS011;6408;59.388;17.798;2022-10-16T09:48:36;5.50;;;2.70;;
12687;SDS011;6408;59.388;17.798;2022-10-16T09:51:13;2.60;;;2.10;;
12687;SDS011;6408;59.388;17.798;2022-10-16T09:53:45;5.95;;;2.15;;
12687;SDS011;6408;59.388;17.798;2022-10-16T09:56:20;4.32;;;2.45;;
12687;SDS011;6408;59.388;17.798;2022-10-16T09:58:49;4.60;;;1.90;;
12687;SDS011;6408;59.388;17.798;2022-10-16T10:01:20;4.07;;;1.90;;
12687;SDS011;6408;59.388;17.798;2022-10-16T10:03:49;3.20;;;1.95;;
12687;SDS011;6408;59.388;17.798;2022-10-16T10:06:19;3.05;;;2.00;;
12687;SDS011;6408;59.388;17.798;2022-10-16T10:08:54;5.05;;;2.10;;
12687;SDS011;6408;59.388;17.798;2022-10-16T10:11:42;8.63;;;2.70;;
12687;SDS011;6408;59.388;17.798;2022-10-16T10:14:25;3.50;;;1.90;;
12687;SDS011;6408;59.388;17.798;2022-10-16T10:17:13;2.95;;;1.90;;
12687;SDS011;6408;59.388;17.798;2022-10-16T10:19:44;4.78;;;1.85;;
12687;SDS011;6408;59.388;17.798;2022-10-16T10:22:25;2.80;;;1.75;;
12687;SDS011;6408;59.388;17.798;2022-10-16T10:24:56;4.00;;;2.17;;
12687;SDS011;6408;59.388;17.798;2022-10-16T10:27:39;4.07;;;1.90;;
12687;SDS011;6408;59.388;17.798;2022-10-16T10:30:18;6.65;;;1.90;;
12687;SDS011;6408;59.388;17.798;2022-10-16T10:32:55;5.13;;;2.20;;
12687;SDS011;6408;59.388;17.798;2022-10-16T10:35:38;3.13;;;2.00;;
12687;SDS011;6408;59.388;17.798;2022-10-16T10:38:16;2.60;;;1.80;;
12687;SDS011;6408;59.388;17.798;2022-10-16T10:40:52;7.10;;;2.83;;
12687;SDS011;6408;59.388;17.798;2022-10-16T10:43:31;7.60;;;2.08;;
12687;SDS011;6408;59.388;17.798;2022-10-16T10:46:12;5.20;;;2.10;;
12687;SDS011;6408;59.388;17.798;2022-10-16T10:48:49;3.85;;;2.08;;
12687;SDS011;6408;59.388;17.798;2022-10-16T10:51:27;3.17;;;2.20;;
12687;SDS011;6408;59.388;17.798;2022-10-16T10:54:04;4.00;;;1.83;;
12687;SDS011;6408;59.388;17.798;2022-10-16T10:56:43;2.47;;;2.03;;
12687;SDS011;6408;59.388;17.798;2022-10-16T10:59:36;5.60;;;2.20;;
12687;SDS011;6408;59.388;17.798;2022-10-16T11:02:21;3.45;;;2.03;;
12687;SDS011;6408;59.388;17.798;2022-10-16T11:07:54;6.35;;;1.90;;
12687;SDS011;6408;59.388;17.798;2022-10-16T11:10:26;4.40;;;1.85;;
12687;SDS011;6408;59.388;17.798;2022-10-16T11:12:58;2.70;;;1.80;;
12687;SDS011;6408;59.388;17.798;2022-10-16T11:15:36;3.85;;;1.60;;
12687;SDS011;6408;59.388;17.798;2022-10-16T11:18:06;3.70;;;2.03;;
12687;SDS011;6408;59.388;17.798;2022-10-16T11:20:41;5.45;;;2.45;;
12687;SDS011;6408;59.388;17.798;2022-10-16T11:23:14;5.03;;;2.30;;
12687;SDS011;6408;59.388;17.798;2022-10-16T11:25:47;5.50;;;2.83;;
12687;SDS011;6408;59.388;17.798;2022-10-16T11:28:16;7.88;;;2.50;;
12687;SDS011;6408;59.388;17.798;2022-10-16T11:30:47;3.78;;;2.17;;
12687;SDS011;6408;59.388;17.798;2022-10-16T11:33:27;4.65;;;2.38;;
12687;SDS011;6408;59.388;17.798;2022-10-16T11:36:03;4.10;;;2.22;;
12687;SDS011;6408;59.388;17.798;2022-10-16T11:38:37;3.83;;;2.17;;
12687;SDS011;6408;59.388;17.798;2022-10-16T11:41:13;4.65;;;1.90;;
12687;SDS011;6408;59.388;17.798;2022-10-16T11:43:49;5.57;;;2.42;;
12687;SDS011;6408;59.388;17.798;2022-10-16T11:46:23;6.80;;;2.15;;
12687;SDS011;6408;59.388;17.798;2022-10-16T11:48:54;5.55;;;2.20;;
12687;SDS011;6408;59.388;17.798;2022-10-16T11:51:31;3.08;;;1.88;;
12687;SDS011;6408;59.388;17.798;2022-10-16T11:54:04;5.40;;;2.30;;
12687;SDS011;6408;59.388;17.798;2022-10-16T11:56:39;6.40;;;2.40;;
12687;SDS011;6408;59.388;17.798;2022-10-16T11:59:12;5.28;;;2.25;;
12687;SDS011;6408;59.388;17.798;2022-10-16T12:01:47;4.57;;;2.30;;
12687;SDS011;6408;59.388;17.798;2022-10-16T12:04:20;4.00;;;1.85;;
12687;SDS011;6408;59.388;17.798;2022-10-16T12:06:55;6.15;;;2.50;;
12687;SDS011;6408;59.388;17.798;2022-10-16T12:09:30;4.93;;;2.75;;
12687;SDS011;6408;59.388;17.798;2022-10-16T12:11:59;5.05;;;2.75;;
12687;SDS011;6408;59.388;17.798;2022-10-16T12:14:37;3.88;;;2.22;;
12687;SDS011;6408;59.388;17.798;2022-10-16T12:19:56;3.88;;;1.95;;
12687;SDS011;6408;59.388;17.798;2022-10-16T12:22:28;3.33;;;2.03;;
12687;SDS011;6408;59.388;17.798;2022-10-16T12:24:58;4.75;;;1.90;;
12687;SDS011;6408;59.388;17.798;2022-10-16T12:27:27;4.53;;;2.60;;
12687;SDS011;6408;59.388;17.798;2022-10-16T12:29:57;4.65;;;2.20;;
12687;SDS011;6408;59.388;17.798;2022-10-16T12:32:30;6.85;;;2.40;;
12687;SDS011;6408;59.388;17.798;2022-10-16T12:34:59;5.43;;;2.10;;
12687;SDS011;6408;59.388;17.798;2022-10-16T12:37:31;4.97;;;1.75;;
12687;SDS011;6408;59.388;17.798;2022-10-16T12:40:10;3.58;;;1.80;;
12687;SDS011;6408;59.388;17.798;2022-10-16T12:42:40;4.45;;;2.13;;
12687;SDS011;6408;59.388;17.798;2022-10-16T12:45:21;4.75;;;2.35;;
12687;SDS011;6408;59.388;17.798;2022-10-16T12:47:53;3.67;;;2.42;;
12687;SDS011;6408;59.388;17.798;2022-10-16T12:50:23;4.63;;;1.95;;
12687;SDS011;6408;59.388;17.798;2022-10-16T12:52:58;5.32;;;2.35;;
12687;SDS011;6408;59.388;17.798;2022-10-16T12:55:27;4.50;;;2.35;;
12687;SDS011;6408;59.388;17.798;2022-10-16T13:01:18;3.30;;;2.50;;
12687;SDS011;6408;59.388;17.798;2022-10-16T13:04:02;3.93;;;2.43;;
12687;SDS011;6408;59.388;17.798;2022-10-16T13:06:48;3.27;;;2.60;;
12687;SDS011;6408;59.388;17.798;2022-10-16T13:09:30;3.75;;;2.50;;
12687;SDS011;6408;59.388;17.798;2022-10-16T13:12:25;3.45;;;2.28;;
12687;SDS011;6408;59.388;17.798;2022-10-16T13:15:16;3.28;;;2.17;;
12687;SDS011;6408;59.388;17.798;2022-10-16T13:17:55;4.68;;;2.28;;
12687;SDS011;6408;59.388;17.798;2022-10-16T13:20:30;2.70;;;2.10;;
12687;SDS011;6408;59.388;17.798;2022-10-16T13:23:04;3.47;;;2.13;;
12687;SDS011;6408;59.388;17.798;2022-10-16T13:25:46;3.58;;;2.55;;
12687;SDS011;6408;59.388;17.798;2022-10-16T13:28:27;4.40;;;2.43;;
12687;SDS011;6408;59.388;17.798;2022-10-16T13:30:57;4.90;;;2.30;;
12687;SDS011;6408;59.388;17.798;2022-10-16T13:33:28;3.80;;;2.50;;
12687;SDS011;6408;59.388;17.798;2022-10-16T13:36:00;4.93;;;2.07;;
12687;SDS011;6408;59.388;17.798;2022-10-16T13:38:29;3.17;;;1.90;;
12687;SDS011;6408;59.388;17.798;2022-10-16T13:41:00;4.53;;;1.90;;
12687;SDS011;6408;59.388;17.798;2022-10-16T13:43:36;3.95;;;1.85;;
12687;SDS011;6408;59.388;17.798;2022-10-16T13:46:07;2.73;;;2.00;;
12687;SDS011;6408;59.388;17.798;2022-10-16T13:48:39;7.40;;;2.80;;
12687;SDS011;6408;59.388;17.798;2022-10-16T13:51:10;4.63;;;1.73;;
12687;SDS011;6408;59.388;17.798;2022-10-16T13:53:40;3.27;;;1.73;;
12687;SDS011;6408;59.388;17.798;2022-10-16T13:56:11;1.83;;;1.20;;
12687;SDS011;6408;59.388;17.798;2022-10-16T13:58:40;1.80;;;1.20;;
12687;SDS011;6408;59.388;17.798;2022-10-16T14:01:15;5.13;;;1.50;;
12687;SDS011;6408;59.388;17.798;2022-10-16T14:03:44;2.57;;;1.10;;
12687;SDS011;6408;59.388;17.798;2022-10-16T14:06:13;1.60;;;0.80;;
12687;SDS011;6408;59.388;17.798;2022-10-16T14:08:43;0.70;;;0.70;;
12687;SDS011;6408;59.388;17.798;2022-10-16T14:11:19;1.40;;;1.00;;
12687;SDS011;6408;59.388;17.798;2022-10-16T14:13:48;1.13;;;0.97;;
12687;SDS011;6408;59.388;17.798;2022-10-16T14:16:18;2.47;;;1.20;;
12687;SDS011;6408;59.388;17.798;2022-10-16T14:18:50;1.40;;;1.00;;
12687;SDS011;6408;59.388;17.798;2022-10-16T14:21:22;1.43;;;0.90;;
12687;SDS011;6408;59.388;17.798;2022-10-16T14:23:51;1.90;;;1.03;;
12687;SDS011;6408;59.388;17.798;2022-10-16T14:26:22;1.63;;;1.20;;
12687;SDS011;6408;59.388;17.798;2022-10-16T14:29:01;1.77;;;1.10;;
12687;SDS011;6408;59.388;17.798;2022-10-16T14:31:36;1.23;;;1.10;;
12687;SDS011;6408;59.388;17.798;2022-10-16T14:34:04;1.47;;;1.10;;
12687;SDS011;6408;59.388;17.798;2022-10-16T14:36:52;1.80;;;1.17;;
12687;SDS011;6408;59.388;17.798;2022-10-16T14:39:20;2.50;;;1.23;;
12687;SDS011;6408;59.388;17.798;2022-10-16T14:41:50;2.70;;;1.20;;
12687;SDS011;6408;59.388;17.798;2022-10-16T14:44:18;2.03;;;1.20;;
12687;SDS011;6408;59.388;17.798;2022-10-16T14:46:49;2.13;;;1.20;;
12687;SDS011;6408;59.388;17.798;2022-10-16T14:49:17;1.77;;;1.13;;
12687;SDS011;6408;59.388;17.798;2022-10-16T14:51:46;4.37;;;1.30;;
12687;SDS011;6408;59.388;17.798;2022-10-16T14:54:15;1.90;;;1.23;;
12687;SDS011;6408;59.388;17.798;2022-10-16T14:56:45;1.50;;;1.10;;
12687;SDS011;6408;59.388;17.798;2022-10-16T14:59:17;2.57;;;1.47;;
12687;SDS011;6408;59.388;17.798;2022-10-16T15:01:48;2.10;;;1.60;;
12687;SDS011;6408;59.388;17.798;2022-10-16T15:04:16;6.77;;;2.17;;
12687;SDS011;6408;59.388;17.798;2022-10-16T15:06:43;3.67;;;1.73;;
12687;SDS011;6408;59.388;17.798;2022-10-16T15:09:11;3.50;;;2.20;;
12687;SDS011;6408;59.388;17.798;2022-10-16T15:11:38;3.10;;;2.40;;
12687;SDS011;6408;59.388;17.798;2022-10-16T15:14:08;5.23;;;2.73;;
12687;SDS011;6408;59.388;17.798;2022-10-16T15:16:38;6.63;;;3.00;;
12687;SDS011;6408;59.388;17.798;2022-10-16T15:19:06;5.13;;;2.03;;